createdAt,value
2023-05-21T00:00:41.123Z,14.50
2023-05-21T00:03:42.301Z,14.50
2023-05-21T00:06:39.961Z,14.50
2023-05-21T00:09:38.571Z,14.50
2023-05-21T00:12:36.065Z,14.40
2023-05-21T00:15:33.986Z,14.40
2023-05-21T00:18:32.541Z,14.40
2023-05-21T00:21:32.009Z,14.32
2023-05-21T00:24:29.741Z,14.30
2023-05-21T00:27:27.183Z,14.30
2023-05-21T00:30:24.910Z,14.28
2023-05-21T00:33:22.913Z,14.20
2023-05-21T00:36:24.148Z,14.20
2023-05-21T00:39:22.017Z,14.20
2023-05-21T00:42:19.444Z,14.20
2023-05-21T00:45:17.254Z,14.14
2023-05-21T00:48:14.847Z,14.10
2023-05-21T00:51:12.634Z,14.10
2023-05-21T00:54:10.150Z,14.00
2023-05-21T00:57:07.802Z,14.00
2023-05-21T01:00:07.209Z,13.90
2023-05-21T01:03:05.163Z,13.80
2023-05-21T01:06:03.939Z,13.80
2023-05-21T01:09:02.124Z,13.80
2023-05-21T01:12:01.311Z,13.70
2023-05-21T01:14:59.401Z,13.70
2023-05-21T01:17:57.612Z,13.68
2023-05-21T01:20:55.563Z,13.60
2023-05-21T01:23:53.061Z,13.60
2023-05-21T01:26:50.793Z,13.50
2023-05-21T01:29:48.273Z,13.50
2023-05-21T01:32:46.211Z,13.50
2023-05-21T01:35:44.160Z,13.40
2023-05-21T01:38:41.822Z,13.40
2023-05-21T01:41:39.526Z,13.40
2023-05-21T01:44:37.002Z,13.38
2023-05-21T01:47:34.844Z,13.30
2023-05-21T01:50:32.685Z,13.30
2023-05-21T01:53:30.490Z,13.30
2023-05-21T01:56:28.702Z,13.30
2023-05-21T01:59:26.640Z,13.26
2023-05-21T02:02:24.602Z,13.20
2023-05-21T02:05:22.232Z,13.20
2023-05-21T02:08:19.987Z,13.10
2023-05-21T02:11:17.516Z,13.10
2023-05-21T02:14:15.519Z,13.10
2023-05-21T02:17:13.195Z,13.08
2023-05-21T02:20:12.388Z,13.00
2023-05-21T02:23:10.296Z,13.00
2023-05-21T02:26:07.829Z,13.00
2023-05-21T02:29:05.658Z,13.00
2023-05-21T02:32:03.511Z,12.90
2023-05-21T02:35:01.007Z,12.90
2023-05-21T02:37:59.700Z,12.90
2023-05-21T02:40:57.327Z,12.86
2023-05-21T02:43:55.208Z,12.80
2023-05-21T02:46:52.709Z,12.80
2023-05-21T02:49:50.515Z,12.80
2023-05-21T02:52:48.395Z,12.80
2023-05-21T02:55:45.889Z,12.80
2023-05-21T02:58:43.704Z,12.72
2023-05-21T03:01:41.930Z,12.70
2023-05-21T03:04:46.632Z,12.70
2023-05-21T03:07:44.316Z,12.70
2023-05-21T03:10:42.176Z,12.66
2023-05-21T03:13:40.092Z,12.60
2023-05-21T03:16:38.166Z,12.60
2023-05-21T03:19:36.272Z,12.56
2023-05-21T03:22:33.819Z,12.50
2023-05-21T03:25:31.661Z,12.50
2023-05-21T03:28:29.518Z,12.50
2023-05-21T03:31:27.038Z,12.50
2023-05-21T03:34:24.864Z,12.50
2023-05-21T03:37:22.425Z,12.50
2023-05-21T03:40:20.154Z,12.48
2023-05-21T03:43:17.642Z,12.50
2023-05-21T03:46:15.550Z,12.50
2023-05-21T03:49:13.348Z,12.50
2023-05-21T03:52:10.978Z,12.50
2023-05-21T03:55:08.666Z,12.50
2023-05-21T03:58:06.194Z,12.50
2023-05-21T04:01:05.127Z,12.50
2023-05-21T04:04:02.792Z,12.50
2023-05-21T04:07:01.492Z,12.60
2023-05-21T04:09:59.370Z,12.60
2023-05-21T04:12:56.885Z,12.70
2023-05-21T04:15:54.607Z,12.70
2023-05-21T04:18:52.467Z,12.74
2023-05-21T04:21:50.181Z,12.80
2023-05-21T04:24:48.897Z,12.90
2023-05-21T04:27:47.989Z,13.00
2023-05-21T04:30:46.069Z,13.04
2023-05-21T04:33:46.344Z,13.10
2023-05-21T04:36:44.279Z,13.20
2023-05-21T04:39:42.522Z,13.30
2023-05-21T04:42:41.527Z,13.40
2023-05-21T04:45:39.120Z,13.50
2023-05-21T04:48:36.870Z,13.60
2023-05-21T04:51:34.376Z,13.70
2023-05-21T04:54:32.119Z,13.80
2023-05-21T04:57:29.993Z,13.84
2023-05-21T05:00:27.963Z,14.00
2023-05-21T05:03:25.833Z,14.04
2023-05-21T05:06:25.917Z,14.12
2023-05-21T05:09:25.453Z,14.26
2023-05-21T05:12:22.949Z,14.40
2023-05-21T05:15:20.674Z,14.50
2023-05-21T05:18:18.175Z,14.60
2023-05-21T05:21:15.809Z,14.70
2023-05-21T05:24:13.641Z,14.90
2023-05-21T05:27:11.200Z,15.10
2023-05-21T05:30:09.060Z,15.20
2023-05-21T05:33:06.894Z,15.40
2023-05-21T05:36:04.833Z,15.52
2023-05-21T05:39:02.307Z,15.70
2023-05-21T05:42:00.034Z,15.82
2023-05-21T05:44:57.830Z,16.00
2023-05-21T05:47:55.398Z,16.20
2023-05-21T05:50:55.011Z,16.36
2023-05-21T05:53:52.540Z,16.50
2023-05-21T05:56:50.371Z,16.60
2023-05-21T05:59:47.909Z,16.78
2023-05-21T06:02:45.672Z,16.90
2023-05-21T06:05:43.255Z,17.00
2023-05-21T06:08:41.835Z,17.12
2023-05-21T06:11:39.522Z,17.28
2023-05-21T06:14:37.050Z,17.40
2023-05-21T06:17:34.931Z,17.50
2023-05-21T06:20:32.589Z,17.68
2023-05-21T06:23:32.779Z,17.80
2023-05-21T06:26:30.313Z,17.90
2023-05-21T06:29:28.329Z,18.00
2023-05-21T06:32:25.938Z,18.10
2023-05-21T06:35:23.769Z,18.20
2023-05-21T06:38:21.632Z,18.30
2023-05-21T06:41:19.131Z,18.42
2023-05-21T06:44:17.150Z,18.50
2023-05-21T06:47:14.684Z,18.60
2023-05-21T06:50:12.372Z,18.68
2023-05-21T06:53:09.849Z,18.80
2023-05-21T06:56:07.625Z,18.90
2023-05-21T06:59:05.157Z,19.10
2023-05-21T07:02:04.508Z,19.26
2023-05-21T07:05:02.564Z,19.40
2023-05-21T07:08:00.084Z,19.62
2023-05-21T07:10:57.894Z,19.82
2023-05-21T07:13:55.454Z,20.00
2023-05-21T07:16:53.247Z,20.20
2023-05-21T07:19:50.923Z,20.32
2023-05-21T07:22:48.610Z,20.56
2023-05-21T07:25:46.425Z,20.70
2023-05-21T07:28:43.950Z,20.88
2023-05-21T07:31:41.820Z,21.10
2023-05-21T07:34:39.574Z,21.30
2023-05-21T07:37:37.258Z,21.40
2023-05-21T07:40:34.818Z,21.60
2023-05-21T07:43:32.528Z,21.72
2023-05-21T07:46:30.151Z,21.96
2023-05-21T07:49:28.714Z,22.20
2023-05-21T07:52:26.267Z,22.38
2023-05-21T07:55:24.104Z,22.58
2023-05-21T07:58:22.345Z,22.80
2023-05-21T08:01:19.822Z,23.02
2023-05-21T08:04:17.866Z,23.20
2023-05-21T08:07:17.381Z,23.30
2023-05-21T08:10:16.182Z,23.50
2023-05-21T08:13:15.628Z,23.70
2023-05-21T08:16:13.224Z,23.70
2023-05-21T08:19:14.285Z,23.90
2023-05-21T08:22:12.040Z,24.00
2023-05-21T08:25:10.266Z,24.10
2023-05-21T08:28:07.809Z,24.40
2023-05-21T08:31:05.512Z,24.74
2023-05-21T08:34:03.359Z,25.10
2023-05-21T08:37:00.878Z,25.30
2023-05-21T08:39:58.795Z,25.50
2023-05-21T08:42:56.363Z,25.50
2023-05-21T08:45:54.079Z,25.30
2023-05-21T08:48:51.615Z,25.40
2023-05-21T08:51:50.694Z,25.50
2023-05-21T08:54:48.222Z,25.80
2023-05-21T08:57:45.910Z,25.90
2023-05-21T09:00:43.428Z,26.10
2023-05-21T09:03:41.348Z,26.30
2023-05-21T09:06:39.207Z,26.50
2023-05-21T09:09:36.738Z,27.00
2023-05-21T09:12:34.642Z,27.38
2023-05-21T09:15:39.138Z,27.68
2023-05-21T09:18:37.100Z,27.70
2023-05-21T09:21:34.898Z,28.08
2023-05-21T09:24:35.104Z,28.34
2023-05-21T09:27:34.014Z,28.60
2023-05-21T09:30:33.972Z,28.70
2023-05-21T09:33:33.633Z,28.80
2023-05-21T09:36:31.063Z,28.80
2023-05-21T09:39:28.911Z,29.10
2023-05-21T09:42:26.597Z,29.24
2023-05-21T09:45:24.100Z,29.30
2023-05-21T09:48:21.786Z,29.30
2023-05-21T09:51:19.334Z,29.50
2023-05-21T09:54:17.183Z,29.90
2023-05-21T09:57:14.687Z,30.20
2023-05-21T10:00:14.070Z,30.20
2023-05-21T10:03:12.316Z,30.20
2023-05-21T10:06:10.165Z,30.50
2023-05-21T10:09:07.818Z,30.80
2023-05-21T10:12:05.294Z,30.88
2023-05-21T10:15:02.937Z,30.94
2023-05-21T10:18:00.446Z,30.82
2023-05-21T10:20:58.092Z,30.70
2023-05-21T10:23:56.790Z,30.50
2023-05-21T10:26:54.263Z,30.90
2023-05-21T10:29:54.297Z,30.90
2023-05-21T10:32:52.002Z,31.10
2023-05-21T10:35:51.404Z,31.20
2023-05-21T10:38:49.562Z,31.40
2023-05-21T10:41:47.201Z,31.60
2023-05-21T10:44:44.902Z,31.70
2023-05-21T10:47:42.406Z,31.80
2023-05-21T10:50:40.498Z,31.90
2023-05-21T10:53:38.492Z,32.00
2023-05-21T10:56:36.233Z,32.00
2023-05-21T10:59:33.673Z,32.10
2023-05-21T11:02:31.539Z,32.34
2023-05-21T11:05:29.378Z,32.62
2023-05-21T11:08:26.837Z,32.60
2023-05-21T11:11:24.685Z,32.40
2023-05-21T11:14:22.113Z,32.44
2023-05-21T11:17:20.355Z,32.20
2023-05-21T11:20:18.108Z,32.20
2023-05-21T11:23:15.838Z,32.40
2023-05-21T11:26:13.547Z,32.40
2023-05-21T11:29:11.264Z,32.30
2023-05-21T11:32:09.487Z,32.20
2023-05-21T11:35:06.995Z,32.20
2023-05-21T11:38:04.777Z,32.10
2023-05-21T11:41:02.216Z,32.10
2023-05-21T11:43:59.929Z,32.30
2023-05-21T11:46:58.830Z,32.20
2023-05-21T11:49:56.469Z,32.12
2023-05-21T11:52:54.229Z,32.32
2023-05-21T11:55:57.729Z,32.60
2023-05-21T11:59:01.333Z,32.40
2023-05-21T12:01:59.437Z,32.72
2023-05-21T12:05:00.807Z,33.00
2023-05-21T12:07:58.648Z,33.30
2023-05-21T12:10:56.158Z,33.12
2023-05-21T12:13:53.990Z,33.20
2023-05-21T12:16:51.627Z,33.36
2023-05-21T12:19:49.500Z,33.50
2023-05-21T12:22:46.987Z,33.40
2023-05-21T12:25:45.222Z,33.30
2023-05-21T12:28:43.009Z,33.26
2023-05-21T12:31:40.654Z,33.30
2023-05-21T12:34:39.148Z,33.20
2023-05-21T12:37:37.134Z,33.30
2023-05-21T12:40:34.948Z,33.40
2023-05-21T12:43:32.630Z,33.40
2023-05-21T12:46:30.247Z,33.28
2023-05-21T12:49:27.745Z,33.20
2023-05-21T12:52:26.077Z,33.20
2023-05-21T12:55:23.743Z,33.08
2023-05-21T12:58:22.392Z,33.20
2023-05-21T13:01:20.115Z,33.20
2023-05-21T13:04:17.604Z,33.10
2023-05-21T13:07:16.332Z,33.00
2023-05-21T13:10:13.827Z,33.20
2023-05-21T13:13:11.722Z,33.20
2023-05-21T13:16:09.248Z,33.44
2023-05-21T13:19:07.158Z,33.58
2023-05-21T13:22:07.059Z,33.26
2023-05-21T13:25:04.499Z,33.00
2023-05-21T13:28:02.348Z,32.90
2023-05-21T13:30:59.828Z,32.68
2023-05-21T13:33:57.569Z,32.52
2023-05-21T13:36:55.034Z,32.08
2023-05-21T13:39:52.711Z,31.50
2023-05-21T13:42:50.477Z,31.40
2023-05-21T13:45:49.577Z,31.52
2023-05-21T13:48:47.721Z,31.34
2023-05-21T13:51:45.259Z,31.20
2023-05-21T13:54:43.585Z,31.40
2023-05-21T13:57:41.140Z,31.46
2023-05-21T14:00:39.114Z,31.60
2023-05-21T14:03:36.870Z,31.60
2023-05-21T14:06:34.733Z,31.60
2023-05-21T14:09:32.500Z,31.30
2023-05-21T14:12:29.922Z,31.42
2023-05-21T14:15:28.063Z,31.60
2023-05-21T14:18:25.504Z,31.50
2023-05-21T14:21:23.267Z,31.60
2023-05-21T14:24:20.727Z,31.78
2023-05-21T14:27:18.525Z,31.80
2023-05-21T14:30:16.370Z,31.60
2023-05-21T14:33:13.911Z,31.50
2023-05-21T14:36:11.621Z,31.40
2023-05-21T14:39:09.120Z,31.50
2023-05-21T14:42:06.922Z,31.44
2023-05-21T14:45:17.352Z,31.40
2023-05-21T14:48:16.376Z,31.20
2023-05-21T14:51:14.590Z,31.20
2023-05-21T14:54:12.086Z,31.30
2023-05-21T14:57:09.852Z,31.40
2023-05-21T15:00:07.348Z,31.30
2023-05-21T15:03:05.272Z,31.10
2023-05-21T15:06:02.819Z,31.00
2023-05-21T15:09:00.564Z,30.90
2023-05-21T15:11:58.341Z,30.80
2023-05-21T15:14:55.804Z,30.62
2023-05-21T15:17:53.696Z,30.30
2023-05-21T15:20:51.188Z,30.20
2023-05-21T15:23:48.878Z,30.12
2023-05-21T15:26:46.387Z,30.06
2023-05-21T15:29:45.954Z,29.96
2023-05-21T15:32:43.409Z,29.80
2023-05-21T15:35:41.612Z,29.40
2023-05-21T15:38:39.770Z,29.30
2023-05-21T15:41:38.519Z,29.30
2023-05-21T15:44:36.129Z,29.20
2023-05-21T15:47:33.661Z,29.00
2023-05-21T15:50:31.636Z,28.90
2023-05-21T15:53:29.996Z,28.90
2023-05-21T15:56:28.061Z,28.72
2023-05-21T15:59:27.810Z,28.60
2023-05-21T16:02:25.336Z,28.40
2023-05-21T16:05:23.076Z,28.30
2023-05-21T16:08:20.746Z,28.30
2023-05-21T16:11:18.574Z,28.10
2023-05-21T16:14:16.055Z,28.00
2023-05-21T16:17:13.955Z,27.80
2023-05-21T16:20:11.634Z,27.72
2023-05-21T16:23:09.057Z,27.60
2023-05-21T16:26:06.902Z,27.40
2023-05-21T16:29:04.391Z,27.30
2023-05-21T16:32:02.250Z,27.20
2023-05-21T16:34:59.802Z,27.06
2023-05-21T16:37:58.080Z,27.00
2023-05-21T16:40:55.938Z,26.90
2023-05-21T16:43:54.512Z,26.70
2023-05-21T16:46:52.152Z,26.60
2023-05-21T16:49:49.714Z,26.50
2023-05-21T16:52:49.820Z,26.30
2023-05-21T16:55:47.534Z,26.20
2023-05-21T16:58:44.983Z,26.00
2023-05-21T17:01:42.879Z,25.90
2023-05-21T17:04:40.443Z,25.88
2023-05-21T17:07:38.821Z,25.80
2023-05-21T17:10:36.254Z,25.60
2023-05-21T17:13:34.046Z,25.50
2023-05-21T17:16:31.641Z,25.40
2023-05-21T17:19:29.679Z,25.36
2023-05-21T17:22:27.741Z,25.30
2023-05-21T17:25:25.694Z,25.20
2023-05-21T17:28:23.403Z,25.10
2023-05-21T17:31:21.982Z,25.00
2023-05-21T17:34:19.840Z,24.90
2023-05-21T17:37:17.323Z,24.80
2023-05-21T17:40:15.079Z,24.60
2023-05-21T17:43:12.826Z,24.60
2023-05-21T17:46:10.833Z,24.50
2023-05-21T17:49:10.204Z,24.42
2023-05-21T17:52:07.637Z,24.40
2023-05-21T17:55:05.955Z,24.30
2023-05-21T17:58:05.520Z,24.20
2023-05-21T18:01:03.326Z,24.10
2023-05-21T18:04:00.841Z,24.00
2023-05-21T18:06:58.673Z,23.98
2023-05-21T18:09:56.112Z,23.90
2023-05-21T18:12:53.901Z,23.80
2023-05-21T18:15:51.459Z,23.70
2023-05-21T18:18:49.480Z,23.60
2023-05-21T18:21:48.091Z,23.50
2023-05-21T18:24:46.315Z,23.40
2023-05-21T18:27:43.974Z,23.30
2023-05-21T18:30:41.432Z,23.10
2023-05-21T18:33:39.797Z,23.00
2023-05-21T18:36:39.017Z,22.80
2023-05-21T18:39:36.772Z,22.70
2023-05-21T18:42:34.355Z,22.50
2023-05-21T18:45:31.819Z,22.40
2023-05-21T18:48:29.756Z,22.20
2023-05-21T18:51:27.262Z,22.08
2023-05-21T18:54:24.974Z,21.90
2023-05-21T18:57:22.533Z,21.74
2023-05-21T19:00:22.003Z,21.60
2023-05-21T19:03:19.583Z,21.44
2023-05-21T19:06:17.381Z,21.30
2023-05-21T19:09:15.082Z,21.20
2023-05-21T19:12:12.521Z,21.10
2023-05-21T19:18:30.456Z,20.96
2023-05-21T19:21:28.604Z,20.80
2023-05-21T19:24:26.515Z,20.70
2023-05-21T19:27:24.338Z,20.60
2023-05-21T19:30:22.181Z,20.56
2023-05-21T19:33:19.704Z,20.42
2023-05-21T19:36:17.509Z,20.38
2023-05-21T19:39:15.017Z,20.20
2023-05-21T19:42:12.676Z,20.10
2023-05-21T19:45:11.664Z,20.00
2023-05-21T19:48:09.508Z,19.82
2023-05-21T19:51:07.217Z,19.70
2023-05-21T19:54:04.730Z,19.60
2023-05-21T19:57:02.496Z,19.56
2023-05-21T20:00:00.066Z,19.46
2023-05-21T20:02:57.930Z,19.36
2023-05-21T20:05:55.531Z,19.20
2023-05-21T20:08:53.843Z,19.20
2023-05-21T20:11:51.322Z,19.12
2023-05-21T20:14:49.076Z,19.10
2023-05-21T20:17:46.981Z,19.00
2023-05-21T20:20:44.432Z,18.90
2023-05-21T20:23:43.909Z,18.82
2023-05-21T20:26:41.422Z,18.80
2023-05-21T20:29:39.242Z,18.70
2023-05-21T20:32:36.772Z,18.60
2023-05-21T20:35:34.572Z,18.52
2023-05-21T20:38:33.281Z,18.44
2023-05-21T20:41:38.599Z,18.40
2023-05-21T20:44:36.868Z,18.30
2023-05-21T20:47:34.384Z,18.20
2023-05-21T20:50:34.966Z,18.10
2023-05-21T20:53:32.404Z,18.00
2023-05-21T20:56:41.483Z,18.00
2023-05-21T20:59:39.963Z,17.90
2023-05-21T21:02:39.054Z,17.90
2023-05-21T21:05:36.659Z,17.90
2023-05-21T21:08:34.975Z,17.80
2023-05-21T21:11:32.425Z,17.70
2023-05-21T21:14:32.010Z,17.68
2023-05-21T21:17:30.958Z,17.60
2023-05-21T21:20:28.482Z,17.50
2023-05-21T21:23:26.618Z,17.50
2023-05-21T21:26:24.094Z,17.40
2023-05-21T21:29:21.812Z,17.40
2023-05-21T21:32:19.289Z,17.30
2023-05-21T21:35:17.250Z,17.30
2023-05-21T21:38:14.749Z,17.20
2023-05-21T21:41:12.471Z,17.20
2023-05-21T21:44:10.243Z,17.10
2023-05-21T21:47:07.750Z,17.10
2023-05-21T21:50:05.548Z,17.10
2023-05-21T21:53:03.769Z,17.00
2023-05-21T21:56:01.644Z,17.00
2023-05-21T21:58:59.139Z,16.94
2023-05-21T22:01:57.171Z,16.90
2023-05-21T22:04:54.662Z,16.90
2023-05-21T22:07:52.423Z,16.90
2023-05-21T22:10:49.927Z,16.80
2023-05-21T22:13:47.737Z,16.78
2023-05-21T22:16:45.523Z,16.70
2023-05-21T22:19:43.070Z,16.70
2023-05-21T22:22:41.016Z,16.60
2023-05-21T22:25:38.465Z,16.56
2023-05-21T22:28:36.361Z,16.50
2023-05-21T22:31:33.888Z,16.50
2023-05-21T22:34:31.663Z,16.40
2023-05-21T22:37:29.139Z,16.40
2023-05-21T22:40:26.842Z,16.40
2023-05-21T22:43:24.688Z,16.30
2023-05-21T22:46:22.222Z,16.30
2023-05-21T22:49:20.198Z,16.22
2023-05-21T22:52:17.823Z,16.20
2023-05-21T22:55:16.365Z,16.20
2023-05-21T22:58:13.880Z,16.10
2023-05-21T23:01:11.692Z,16.10
2023-05-21T23:04:09.187Z,16.00
2023-05-21T23:07:06.922Z,16.00
2023-05-21T23:10:04.697Z,15.90
2023-05-21T23:13:02.210Z,15.90
2023-05-21T23:15:59.896Z,15.80
2023-05-21T23:18:57.386Z,15.80
2023-05-21T23:21:55.007Z,15.70
2023-05-21T23:24:54.269Z,15.70
2023-05-21T23:27:52.102Z,15.66
2023-05-21T23:30:49.574Z,15.60
2023-05-21T23:33:47.435Z,15.60
2023-05-21T23:36:44.890Z,15.50
2023-05-21T23:39:43.959Z,15.50
2023-05-21T23:42:41.862Z,15.48
2023-05-21T23:45:41.208Z,15.40
2023-05-21T23:48:38.840Z,15.40
2023-05-21T23:51:36.332Z,15.40
2023-05-21T23:54:34.150Z,15.30
2023-05-21T23:57:31.612Z,15.30
